createdAt,value
2019-02-10T00:01:57.819Z,100.00
2019-02-10T00:04:38.361Z,100.00
2019-02-10T00:07:24.254Z,100.00
2019-02-10T00:09:58.377Z,100.00
2019-02-10T00:12:31.064Z,100.00
2019-02-10T00:15:05.783Z,100.00
2019-02-10T00:17:39.611Z,100.00
2019-02-10T00:20:16.776Z,100.00
2019-02-10T00:22:53.167Z,100.00
2019-02-10T00:25:27.886Z,100.00
2019-02-10T00:28:02.415Z,100.00
2019-02-10T00:30:39.132Z,100.00
2019-02-10T00:33:14.644Z,100.00
2019-02-10T00:35:51.184Z,100.00
2019-02-10T00:38:27.043Z,100.00
2019-02-10T00:41:02.897Z,100.00
2019-02-10T00:43:37.341Z,100.00
2019-02-10T00:46:13.739Z,100.00
2019-02-10T00:48:49.047Z,100.00
2019-02-10T00:51:26.125Z,100.00
2019-02-10T00:54:00.069Z,100.00
2019-02-10T00:56:33.985Z,100.00
2019-02-10T00:59:11.205Z,100.00
2019-02-10T01:01:45.846Z,100.00
2019-02-10T01:04:22.116Z,100.00
2019-02-10T01:06:58.723Z,100.00
2019-02-10T01:09:34.270Z,100.00
2019-02-10T01:12:09.029Z,100.00
2019-02-10T01:14:47.472Z,100.00
2019-02-10T01:17:23.079Z,100.00
2019-02-10T01:19:57.672Z,100.00
2019-02-10T01:22:30.840Z,100.00
2019-02-10T01:25:05.925Z,100.00
2019-02-10T01:27:56.440Z,100.00
2019-02-10T01:30:28.207Z,100.00
2019-02-10T01:33:00.156Z,100.00
2019-02-10T01:35:32.672Z,100.00
2019-02-10T01:38:04.554Z,100.00
2019-02-10T01:40:36.580Z,100.00
2019-02-10T01:43:08.280Z,100.00
2019-02-10T01:45:40.065Z,100.00
2019-02-10T01:48:11.784Z,100.00
2019-02-10T01:50:43.410Z,100.00
2019-02-10T01:53:15.863Z,100.00
2019-02-10T01:55:47.563Z,100.00
2019-02-10T01:58:19.408Z,100.00
2019-02-10T02:00:51.209Z,100.00
2019-02-10T02:03:22.800Z,100.00
2019-02-10T02:05:54.847Z,100.00
2019-02-10T02:08:26.621Z,100.00
2019-02-10T02:10:59.205Z,100.00
2019-02-10T02:13:30.994Z,100.00
2019-02-10T02:16:04.367Z,100.00
2019-02-10T02:18:36.654Z,100.00
2019-02-10T02:21:09.383Z,100.00
2019-02-10T02:23:41.133Z,100.00
2019-02-10T02:26:13.322Z,100.00
2019-02-10T02:28:45.036Z,100.00
2019-02-10T02:31:16.814Z,100.00
2019-02-10T02:33:48.760Z,100.00
2019-02-10T02:36:20.527Z,100.00
2019-02-10T02:38:52.843Z,100.00
2019-02-10T02:41:24.880Z,100.00
2019-02-10T02:43:56.607Z,100.00
2019-02-10T02:46:28.215Z,100.00
2019-02-10T02:48:59.970Z,100.00
2019-02-10T02:51:32.171Z,100.00
2019-02-10T02:54:04.011Z,100.00
2019-02-10T02:56:35.690Z,100.00
2019-02-10T02:59:07.407Z,100.00
2019-02-10T03:01:39.529Z,100.00
2019-02-10T03:04:11.123Z,100.00
2019-02-10T03:06:46.188Z,100.00
2019-02-10T03:09:18.745Z,100.00
2019-02-10T03:11:50.546Z,100.00
2019-02-10T03:14:24.087Z,100.00
2019-02-10T03:16:55.947Z,100.00
2019-02-10T03:19:27.503Z,100.00
2019-02-10T03:22:02.754Z,100.00
2019-02-10T03:24:34.716Z,100.00
2019-02-10T03:27:06.448Z,100.00
2019-02-10T03:29:38.196Z,100.00
2019-02-10T03:32:09.902Z,100.00
2019-02-10T03:34:41.538Z,100.00
2019-02-10T03:37:13.494Z,100.00
2019-02-10T03:39:45.193Z,100.00
2019-02-10T03:42:17.074Z,100.00
2019-02-10T03:44:48.708Z,100.00
2019-02-10T03:47:22.193Z,100.00
2019-02-10T03:49:53.920Z,100.00
2019-02-10T03:52:26.678Z,100.00
2019-02-10T03:54:58.369Z,100.00
2019-02-10T03:57:29.867Z,100.00
2019-02-10T04:00:01.641Z,100.00
2019-02-10T04:02:33.324Z,100.00
2019-02-10T04:05:04.984Z,100.00
2019-02-10T04:07:36.930Z,100.00
2019-02-10T04:10:09.523Z,100.00
2019-02-10T04:12:41.224Z,100.00
2019-02-10T04:15:13.074Z,100.00
2019-02-10T04:17:44.727Z,100.00
2019-02-10T04:20:16.468Z,100.00
2019-02-10T04:22:48.329Z,100.00
2019-02-10T04:25:20.084Z,100.00
2019-02-10T04:27:51.705Z,100.00
2019-02-10T04:30:23.444Z,100.00
2019-02-10T04:32:55.148Z,100.00
2019-02-10T04:35:26.885Z,100.00
2019-02-10T04:37:58.557Z,100.00
2019-02-10T04:40:30.131Z,100.00
2019-02-10T04:43:01.723Z,100.00
2019-02-10T04:45:33.480Z,100.00
2019-02-10T04:48:05.191Z,100.00
2019-02-10T04:50:36.735Z,100.00
2019-02-10T04:53:08.366Z,100.00
2019-02-10T04:55:40.194Z,100.00
2019-02-10T04:58:11.963Z,100.00
2019-02-10T05:00:43.539Z,100.00
2019-02-10T05:03:15.317Z,100.00
2019-02-10T05:05:47.156Z,100.00
2019-02-10T05:08:19.278Z,100.00
2019-02-10T05:10:51.056Z,100.00
2019-02-10T05:13:22.842Z,100.00
2019-02-10T05:15:54.472Z,100.00
2019-02-10T05:18:26.258Z,100.00
2019-02-10T05:20:58.042Z,100.00
2019-02-10T05:23:29.968Z,100.00
2019-02-10T05:26:02.185Z,100.00
2019-02-10T05:28:34.325Z,100.00
2019-02-10T05:31:06.902Z,100.00
2019-02-10T05:33:38.655Z,100.00
2019-02-10T05:36:10.335Z,100.00
2019-02-10T05:38:42.058Z,100.00
2019-02-10T05:41:13.805Z,100.00
2019-02-10T05:43:45.567Z,100.00
2019-02-10T05:46:17.436Z,100.00
2019-02-10T05:48:49.739Z,100.00
2019-02-10T05:51:21.661Z,100.00
2019-02-10T05:53:53.567Z,100.00
2019-02-10T05:56:25.597Z,100.00
2019-02-10T05:58:57.558Z,100.00
2019-02-10T06:02:06.198Z,100.00
2019-02-10T06:04:43.086Z,100.00
2019-02-10T06:07:18.451Z,100.00
2019-02-10T06:09:50.284Z,100.00
2019-02-10T06:12:26.070Z,100.00
2019-02-10T06:14:57.908Z,100.00
2019-02-10T06:17:29.582Z,100.00
2019-02-10T06:20:01.690Z,100.00
2019-02-10T06:22:33.615Z,100.00
2019-02-10T06:25:05.627Z,100.00
2019-02-10T06:27:37.539Z,100.00
2019-02-10T06:30:10.301Z,100.00
2019-02-10T06:32:42.692Z,100.00
2019-02-10T06:35:17.714Z,100.00
2019-02-10T06:37:49.614Z,100.00
2019-02-10T06:40:21.300Z,100.00
2019-02-10T06:42:53.092Z,100.00
2019-02-10T06:45:24.762Z,100.00
2019-02-10T06:47:57.912Z,100.00
2019-02-10T06:50:29.609Z,100.00
2019-02-10T06:53:01.509Z,100.00
2019-02-10T06:55:33.532Z,100.00
2019-02-10T06:58:05.393Z,100.00
2019-02-10T07:00:50.370Z,100.00
2019-02-10T07:03:56.554Z,100.00
2019-02-10T07:06:28.482Z,100.00
2019-02-10T07:09:04.591Z,100.00
2019-02-10T07:11:36.197Z,100.00
2019-02-10T07:14:35.400Z,100.00
2019-02-10T07:17:50.555Z,100.00
2019-02-10T07:20:44.477Z,100.00
2019-02-10T07:24:25.728Z,100.00
2019-02-10T07:26:59.880Z,100.00
2019-02-10T07:30:29.513Z,100.00
2019-02-10T07:33:03.812Z,100.00
2019-02-10T07:36:17.252Z,100.00
2019-02-10T07:39:56.023Z,100.00
2019-02-10T07:43:15.624Z,100.00
2019-02-10T07:46:50.901Z,100.00
2019-02-10T07:49:46.722Z,100.00
2019-02-10T07:52:52.468Z,100.00
2019-02-10T07:56:28.915Z,100.00
2019-02-10T07:59:51.831Z,100.00
2019-02-10T08:03:28.659Z,100.00
2019-02-10T08:06:47.570Z,100.00
2019-02-10T08:10:17.666Z,100.00
2019-02-10T08:13:35.350Z,100.00
2019-02-10T08:17:28.815Z,100.00
2019-02-10T08:20:54.055Z,100.00
2019-02-10T08:24:06.610Z,100.00
2019-02-10T08:27:29.913Z,100.00
2019-02-10T08:30:42.322Z,100.00
2019-02-10T08:33:45.064Z,100.00
2019-02-10T08:36:53.364Z,100.00
2019-02-10T08:39:58.694Z,100.00
2019-02-10T08:43:36.493Z,100.00
2019-02-10T08:46:48.441Z,100.00
2019-02-10T08:49:50.951Z,100.00
2019-02-10T08:53:03.627Z,100.00
2019-02-10T08:55:35.572Z,100.00
2019-02-10T08:58:07.564Z,100.00
2019-02-10T09:00:39.540Z,100.00
2019-02-10T09:03:19.214Z,99.94
2019-02-10T09:06:03.858Z,98.69
2019-02-10T09:08:36.468Z,98.88
2019-02-10T09:11:08.501Z,97.07
2019-02-10T09:13:40.586Z,95.84
2019-02-10T09:16:15.701Z,93.54
2019-02-10T09:18:49.109Z,90.50
2019-02-10T09:21:21.286Z,91.18
2019-02-10T09:23:53.955Z,88.39
2019-02-10T09:26:26.106Z,89.50
2019-02-10T09:28:58.288Z,88.32
2019-02-10T09:31:30.708Z,90.25
2019-02-10T09:34:02.667Z,89.98
2019-02-10T09:36:34.651Z,86.32
2019-02-10T09:39:10.965Z,84.71
2019-02-10T09:41:40.975Z,86.93
2019-02-10T09:44:13.058Z,88.05
2019-02-10T09:46:45.030Z,88.33
2019-02-10T09:49:16.709Z,88.18
2019-02-10T09:51:48.780Z,87.81
2019-02-10T09:54:20.678Z,85.83
2019-02-10T09:56:52.947Z,85.99
2019-02-10T09:59:26.084Z,86.84
2019-02-10T10:01:57.887Z,88.02
2019-02-10T10:04:29.806Z,88.29
2019-02-10T10:07:01.550Z,88.44
2019-02-10T10:09:33.472Z,88.15
2019-02-10T10:12:05.427Z,89.16
2019-02-10T10:14:37.237Z,87.88
2019-02-10T10:17:08.791Z,86.45
2019-02-10T10:19:44.746Z,86.48
2019-02-10T10:22:16.543Z,86.96
2019-02-10T10:24:50.507Z,85.65
2019-02-10T10:27:21.539Z,85.23
2019-02-10T10:29:53.316Z,85.66
2019-02-10T10:32:24.909Z,85.33
2019-02-10T10:34:56.409Z,84.99
2019-02-10T10:37:28.087Z,84.01
2019-02-10T10:39:59.984Z,83.26
2019-02-10T10:42:40.317Z,83.73
2019-02-10T10:45:12.762Z,83.19
2019-02-10T10:47:44.583Z,83.33
2019-02-10T10:50:16.644Z,80.62
2019-02-10T10:52:48.225Z,79.87
2019-02-10T10:55:19.854Z,74.98
2019-02-10T10:57:52.728Z,78.28
2019-02-10T11:00:24.279Z,78.53
2019-02-10T11:02:56.098Z,80.18
2019-02-10T11:05:27.877Z,80.62
2019-02-10T11:07:59.229Z,79.20
2019-02-10T11:10:30.622Z,76.43
2019-02-10T11:13:02.230Z,72.71
2019-02-10T11:15:34.172Z,68.61
2019-02-10T11:18:10.733Z,68.21
2019-02-10T11:20:42.322Z,68.30
2019-02-10T11:23:14.845Z,66.93
2019-02-10T11:25:46.398Z,67.50
2019-02-10T11:28:17.930Z,69.65
2019-02-10T11:30:49.417Z,66.56
2019-02-10T11:33:21.831Z,65.37
2019-02-10T11:35:54.169Z,65.65
2019-02-10T11:38:26.458Z,65.24
2019-02-10T11:40:58.169Z,68.54
2019-02-10T11:43:29.775Z,66.56
2019-02-10T11:46:02.008Z,70.59
2019-02-10T11:48:34.221Z,73.25
2019-02-10T11:51:06.255Z,74.55
2019-02-10T11:53:38.569Z,75.62
2019-02-10T11:56:10.184Z,76.19
2019-02-10T11:58:41.788Z,76.12
2019-02-10T12:01:13.965Z,75.65
2019-02-10T12:03:45.865Z,76.62
2019-02-10T12:06:17.777Z,77.12
2019-02-10T12:08:49.724Z,75.95
2019-02-10T12:11:21.805Z,74.98
2019-02-10T12:13:54.267Z,73.74
2019-02-10T12:16:27.124Z,72.83
2019-02-10T12:19:00.269Z,73.08
2019-02-10T12:21:33.360Z,71.62
2019-02-10T12:24:06.057Z,69.44
2019-02-10T12:26:38.879Z,68.47
2019-02-10T12:29:10.558Z,69.88
2019-02-10T12:31:42.002Z,69.14
2019-02-10T12:34:13.922Z,69.19
2019-02-10T12:36:45.578Z,68.53
2019-02-10T12:39:17.222Z,68.40
2019-02-10T12:41:49.429Z,69.84
2019-02-10T12:44:21.267Z,69.68
2019-02-10T12:46:52.853Z,70.37
2019-02-10T12:49:24.542Z,69.78
2019-02-10T12:51:56.204Z,69.66
2019-02-10T12:54:28.201Z,69.03
2019-02-10T12:56:59.899Z,70.47
2019-02-10T12:59:31.593Z,70.72
2019-02-10T13:02:06.680Z,70.92
2019-02-10T13:04:38.298Z,71.99
2019-02-10T13:07:10.092Z,72.27
2019-02-10T13:09:41.880Z,73.45
2019-02-10T13:12:17.541Z,73.92
2019-02-10T13:14:46.821Z,73.70
2019-02-10T13:17:18.648Z,73.23
2019-02-10T13:19:50.726Z,73.76
2019-02-10T13:22:22.634Z,75.06
2019-02-10T13:24:59.077Z,75.65
2019-02-10T13:27:30.683Z,75.80
2019-02-10T13:30:02.205Z,77.26
2019-02-10T13:32:34.339Z,77.36
2019-02-10T13:35:06.869Z,77.60
2019-02-10T13:37:38.787Z,78.30
2019-02-10T13:40:19.074Z,77.47
2019-02-10T13:42:51.164Z,77.02
2019-02-10T13:45:23.521Z,76.86
2019-02-10T13:47:55.913Z,77.12
2019-02-10T13:50:27.866Z,75.89
2019-02-10T13:52:59.236Z,75.62
2019-02-10T13:55:31.162Z,75.01
2019-02-10T13:58:02.760Z,76.05
2019-02-10T14:00:34.511Z,76.31
2019-02-10T14:03:05.828Z,76.64
2019-02-10T14:05:37.602Z,77.31
2019-02-10T14:08:09.177Z,77.62
2019-02-10T14:10:40.781Z,76.15
2019-02-10T14:13:12.435Z,76.70
2019-02-10T14:15:44.176Z,76.02
2019-02-10T14:18:16.039Z,75.67
2019-02-10T14:20:48.090Z,75.70
2019-02-10T14:23:19.985Z,75.78
2019-02-10T14:25:56.678Z,75.81
2019-02-10T14:28:28.510Z,74.25
2019-02-10T14:31:00.369Z,72.38
2019-02-10T14:33:38.626Z,72.22
2019-02-10T14:36:06.319Z,72.99
2019-02-10T14:38:38.612Z,73.20
2019-02-10T14:41:20.072Z,73.46
2019-02-10T14:43:51.950Z,72.27
2019-02-10T14:46:24.425Z,73.83
2019-02-10T14:48:56.703Z,73.62
2019-02-10T14:51:28.991Z,73.58
2019-02-10T14:54:01.177Z,72.42
2019-02-10T14:56:33.478Z,71.59
2019-02-10T14:59:05.830Z,70.73
2019-02-10T15:01:38.026Z,71.07
2019-02-10T15:04:10.738Z,71.62
2019-02-10T15:06:43.345Z,72.67
2019-02-10T15:09:15.851Z,72.26
2019-02-10T15:11:54.192Z,72.76
2019-02-10T15:14:26.598Z,72.78
2019-02-10T15:16:59.022Z,74.36
2019-02-10T15:19:31.459Z,74.92
2019-02-10T15:22:03.658Z,75.21
2019-02-10T15:24:36.007Z,74.88
2019-02-10T15:27:10.076Z,74.94
2019-02-10T15:29:42.461Z,75.26
2019-02-10T15:32:16.851Z,75.81
2019-02-10T15:34:48.739Z,76.46
2019-02-10T15:37:20.809Z,76.76
2019-02-10T15:39:53.058Z,76.95
2019-02-10T15:42:25.751Z,77.77
2019-02-10T15:44:58.448Z,78.53
2019-02-10T15:47:30.763Z,78.63
2019-02-10T15:50:04.148Z,78.73
2019-02-10T15:52:40.954Z,78.55
2019-02-10T15:55:13.718Z,79.34
2019-02-10T15:57:46.208Z,78.57
2019-02-10T16:00:22.750Z,79.09
2019-02-10T16:02:55.360Z,80.35
2019-02-10T16:05:27.874Z,79.09
2019-02-10T16:08:00.845Z,79.54
2019-02-10T16:10:33.498Z,80.53
2019-02-10T16:13:07.308Z,80.64
2019-02-10T16:15:40.137Z,81.37
2019-02-10T16:18:15.786Z,81.40
2019-02-10T16:20:52.523Z,81.65
2019-02-10T16:23:25.911Z,81.42
2019-02-10T16:25:59.793Z,81.76
2019-02-10T16:28:39.904Z,81.47
2019-02-10T16:31:12.762Z,82.55
2019-02-10T16:33:54.449Z,83.04
2019-02-10T16:36:27.570Z,82.74
2019-02-10T16:39:16.347Z,82.74
2019-02-10T16:41:52.297Z,83.19
2019-02-10T16:44:25.172Z,83.26
2019-02-10T16:46:58.108Z,84.41
2019-02-10T16:49:31.317Z,84.97
2019-02-10T16:52:03.974Z,83.92
2019-02-10T16:54:36.618Z,83.90
2019-02-10T16:57:13.623Z,84.41
2019-02-10T16:59:46.558Z,84.89
2019-02-10T17:02:20.081Z,85.31
2019-02-10T17:04:53.588Z,85.05
2019-02-10T17:07:27.361Z,85.12
2019-02-10T17:10:00.736Z,85.47
2019-02-10T17:12:33.750Z,86.11
2019-02-10T17:15:06.756Z,86.65
2019-02-10T17:17:39.837Z,87.00
2019-02-10T17:20:22.694Z,86.42
2019-02-10T17:22:56.348Z,86.62
2019-02-10T17:25:29.443Z,87.81
2019-02-10T17:28:07.280Z,87.74
2019-02-10T17:30:40.694Z,87.52
2019-02-10T17:33:13.894Z,87.13
2019-02-10T17:35:47.301Z,87.63
2019-02-10T17:38:21.633Z,87.90
2019-02-10T17:41:11.541Z,88.37
2019-02-10T17:43:45.035Z,88.93
2019-02-10T17:46:23.105Z,89.14
2019-02-10T17:49:01.324Z,89.75
2019-02-10T17:51:36.197Z,90.32
2019-02-10T17:54:11.944Z,90.04
2019-02-10T17:56:46.009Z,89.94
2019-02-10T17:59:22.077Z,90.29
2019-02-10T18:02:01.467Z,90.06
2019-02-10T18:04:37.484Z,90.07
2019-02-10T18:07:08.974Z,90.25
2019-02-10T18:09:46.066Z,90.34
2019-02-10T18:12:18.837Z,90.30
2019-02-10T18:15:19.439Z,90.67
2019-02-10T18:18:00.774Z,90.41
2019-02-10T18:21:04.180Z,90.56
2019-02-10T18:23:53.062Z,90.18
2019-02-10T18:26:54.087Z,90.30
2019-02-10T18:29:52.559Z,90.02
2019-02-10T18:32:51.665Z,90.26
2019-02-10T18:35:46.432Z,90.12
2019-02-10T18:38:30.538Z,90.66
2019-02-10T18:41:24.711Z,91.14
2019-02-10T18:44:15.265Z,90.70
2019-02-10T18:46:57.708Z,90.63
2019-02-10T18:50:04.356Z,90.76
2019-02-10T18:52:55.581Z,91.15
2019-02-10T18:55:38.679Z,91.03
2019-02-10T18:58:30.453Z,90.70
2019-02-10T19:01:31.032Z,90.76
2019-02-10T19:04:28.423Z,90.91
2019-02-10T19:07:31.792Z,91.11
2019-02-10T19:10:22.783Z,90.37
2019-02-10T19:13:17.295Z,90.00
2019-02-10T19:16:06.810Z,90.05
2019-02-10T19:19:10.451Z,90.00
2019-02-10T19:22:00.597Z,89.87
2019-02-10T19:24:57.836Z,90.52
2019-02-10T19:27:50.400Z,90.48
2019-02-10T19:30:45.371Z,90.62
2019-02-10T19:33:39.897Z,90.98
2019-02-10T19:37:01.141Z,91.19
2019-02-10T19:39:52.621Z,91.98
2019-02-10T19:42:47.865Z,92.19
2019-02-10T19:45:43.308Z,92.48
2019-02-10T19:48:39.055Z,92.64
2019-02-10T19:51:24.464Z,91.93
2019-02-10T19:54:19.645Z,92.91
2019-02-10T19:57:28.928Z,92.89
2019-02-10T20:00:36.731Z,91.78
2019-02-10T20:03:32.904Z,92.12
2019-02-10T20:06:33.277Z,91.74
2019-02-10T20:09:28.977Z,92.15
2019-02-10T20:12:27.339Z,92.36
2019-02-10T20:15:35.994Z,92.74
2019-02-10T20:18:34.979Z,92.97
2019-02-10T20:21:29.323Z,92.75
2019-02-10T20:24:21.306Z,92.80
2019-02-10T20:27:27.625Z,94.07
2019-02-10T20:30:12.356Z,92.78
2019-02-10T20:33:05.476Z,92.96
2019-02-10T20:35:57.640Z,94.09
2019-02-10T20:38:48.518Z,93.60
2019-02-10T20:41:43.453Z,94.31
2019-02-10T20:44:33.873Z,94.62
2019-02-10T20:47:31.413Z,94.73
2019-02-10T20:50:25.514Z,94.69
2019-02-10T20:53:17.891Z,94.89
2019-02-10T20:56:08.414Z,94.56
2019-02-10T20:58:55.062Z,94.17
2019-02-10T21:01:51.377Z,93.90
2019-02-10T21:04:49.905Z,93.33
2019-02-10T21:07:47.664Z,93.16
2019-02-10T21:10:54.334Z,92.80
2019-02-10T21:13:45.079Z,92.69
2019-02-10T21:16:35.576Z,93.40
2019-02-10T21:19:14.665Z,94.19
2019-02-10T21:22:05.769Z,94.57
2019-02-10T21:25:05.292Z,95.49
2019-02-10T21:27:48.452Z,94.99
2019-02-10T21:30:41.718Z,94.73
2019-02-10T21:33:22.174Z,95.12
2019-02-10T21:36:09.806Z,95.58
2019-02-10T21:38:51.560Z,95.15
2019-02-10T21:41:34.471Z,94.85
2019-02-10T21:44:29.541Z,95.28
2019-02-10T21:47:12.622Z,95.60
2019-02-10T21:49:45.516Z,95.53
2019-02-10T21:52:17.392Z,95.33
2019-02-10T21:54:52.570Z,96.20
2019-02-10T21:57:24.493Z,95.63
2019-02-10T21:59:57.843Z,95.88
2019-02-10T22:02:29.812Z,95.10
2019-02-10T22:05:01.965Z,92.93
2019-02-10T22:07:33.821Z,92.54
2019-02-10T22:10:06.196Z,92.74
2019-02-10T22:12:40.085Z,91.99
2019-02-10T22:15:12.098Z,91.15
2019-02-10T22:17:43.660Z,90.47
2019-02-10T22:20:15.252Z,90.65
2019-02-10T22:22:46.707Z,90.78
2019-02-10T22:25:18.703Z,89.95
2019-02-10T22:27:50.757Z,90.55
2019-02-10T22:30:22.359Z,91.96
2019-02-10T22:32:54.085Z,91.91
2019-02-10T22:35:25.997Z,91.44
2019-02-10T22:37:58.105Z,90.65
2019-02-10T22:40:29.759Z,89.09
2019-02-10T22:43:03.295Z,90.05
2019-02-10T22:45:35.390Z,90.76
2019-02-10T22:48:06.883Z,90.66
2019-02-10T22:50:38.321Z,91.86
2019-02-10T22:53:10.056Z,92.17
2019-02-10T22:55:41.868Z,93.22
2019-02-10T22:58:13.980Z,93.61
2019-02-10T23:01:03.359Z,92.86
2019-02-10T23:03:35.340Z,93.55
2019-02-10T23:06:08.442Z,94.34
2019-02-10T23:08:39.978Z,94.98
2019-02-10T23:11:11.531Z,94.70
2019-02-10T23:13:42.989Z,95.23
2019-02-10T23:16:14.514Z,95.12
2019-02-10T23:18:45.925Z,95.06
2019-02-10T23:21:17.299Z,94.06
2019-02-10T23:23:48.815Z,94.49
2019-02-10T23:26:20.436Z,95.22
2019-02-10T23:28:51.785Z,94.88
2019-02-10T23:31:23.223Z,94.12
2019-02-10T23:33:54.787Z,93.82
2019-02-10T23:36:26.549Z,94.16
2019-02-10T23:38:58.163Z,94.70
2019-02-10T23:41:30.030Z,94.48
2019-02-10T23:44:06.123Z,94.58
2019-02-10T23:46:37.889Z,95.32
2019-02-10T23:49:09.844Z,95.71
2019-02-10T23:51:41.685Z,95.35
2019-02-10T23:54:14.073Z,95.82
2019-02-10T23:56:47.201Z,95.81
2019-02-10T23:59:19.196Z,95.51
